createdAt,value
2019-05-19T00:00:03.147Z,72
2019-05-19T00:01:02.607Z,72
2019-05-19T00:02:02.561Z,72
2019-05-19T00:03:03.143Z,72
2019-05-19T00:04:03.159Z,72
2019-05-19T00:05:02.622Z,72
2019-05-19T00:06:03.204Z,72
2019-05-19T00:07:02.651Z,72
2019-05-19T00:08:03.091Z,72
2019-05-19T00:09:03.482Z,72
2019-05-19T00:10:03.262Z,72
2019-05-19T00:11:02.677Z,72
2019-05-19T00:12:03.110Z,72
2019-05-19T00:13:03.315Z,72
2019-05-19T00:14:02.859Z,72
2019-05-19T00:15:02.575Z,72
2019-05-19T00:16:02.828Z,72
2019-05-19T00:17:02.727Z,72
2019-05-19T00:18:02.637Z,72
2019-05-19T00:19:03.222Z,72
2019-05-19T00:20:02.498Z,72
2019-05-19T00:21:03.262Z,72
2019-05-19T00:22:02.804Z,72
2019-05-19T00:23:03.382Z,72
2019-05-19T00:24:03.505Z,72
2019-05-19T00:25:03.499Z,72
2019-05-19T00:26:03.117Z,72
2019-05-19T00:27:02.755Z,72
2019-05-19T00:28:02.524Z,72
2019-05-19T00:29:02.744Z,72
2019-05-19T00:30:03.411Z,72
2019-05-19T00:31:02.681Z,72
2019-05-19T00:32:02.723Z,72
2019-05-19T00:33:02.761Z,72
2019-05-19T00:34:56.856Z,72
2019-05-19T00:36:02.916Z,72
2019-05-19T00:37:02.822Z,72
2019-05-19T00:38:03.234Z,72
2019-05-19T00:39:03.112Z,72
2019-05-19T00:40:03.042Z,73
2019-05-19T00:41:02.536Z,72
2019-05-19T00:42:02.838Z,73
2019-05-19T00:43:01.935Z,73
2019-05-19T00:44:02.688Z,73
2019-05-19T00:45:03.317Z,73
2019-05-19T00:46:03.326Z,73
2019-05-19T00:47:03.266Z,73
2019-05-19T00:48:03.387Z,73
2019-05-19T00:49:02.730Z,73
2019-05-19T00:50:03.321Z,73
2019-05-19T00:51:47.717Z,73
2019-05-19T00:53:03.617Z,73
2019-05-19T00:54:02.804Z,73
2019-05-19T00:55:03.520Z,73
2019-05-19T00:56:02.727Z,73
2019-05-19T00:57:03.676Z,73
2019-05-19T00:58:02.972Z,73
2019-05-19T00:59:02.853Z,73
2019-05-19T01:00:03.349Z,73
2019-05-19T01:01:03.454Z,73
2019-05-19T01:02:03.555Z,73
2019-05-19T01:03:03.437Z,73
2019-05-19T01:04:02.897Z,73
2019-05-19T01:05:03.443Z,73
2019-05-19T01:06:03.223Z,73
2019-05-19T01:07:03.551Z,73
2019-05-19T01:08:03.010Z,73
2019-05-19T01:09:03.271Z,74
2019-05-19T01:10:03.671Z,74
2019-05-19T01:11:02.895Z,74
2019-05-19T01:12:03.245Z,74
2019-05-19T01:13:02.685Z,74
2019-05-19T01:14:02.842Z,74
2019-05-19T01:15:03.294Z,74
2019-05-19T01:16:02.714Z,74
2019-05-19T01:17:03.428Z,74
2019-05-19T01:18:02.687Z,74
2019-05-19T01:19:02.832Z,74
2019-05-19T01:20:02.922Z,74
2019-05-19T01:21:02.442Z,74
2019-05-19T01:22:02.401Z,74
2019-05-19T01:23:03.061Z,74
2019-05-19T01:24:02.526Z,74
2019-05-19T01:25:03.094Z,74
2019-05-19T01:26:02.659Z,75
2019-05-19T01:27:02.937Z,74
2019-05-19T01:28:03.302Z,74
2019-05-19T01:29:02.878Z,75
2019-05-19T01:30:03.194Z,75
2019-05-19T01:31:02.766Z,75
2019-05-19T01:32:02.812Z,75
2019-05-19T01:33:03.298Z,75
2019-05-19T01:34:02.863Z,75
2019-05-19T01:35:02.969Z,75
2019-05-19T01:36:02.927Z,75
2019-05-19T01:37:03.140Z,75
2019-05-19T01:38:02.479Z,75
2019-05-19T01:39:03.253Z,75
2019-05-19T01:40:02.956Z,75
2019-05-19T01:41:02.774Z,75
2019-05-19T01:42:03.301Z,75
2019-05-19T01:43:02.566Z,75
2019-05-19T01:44:02.588Z,75
2019-05-19T01:45:02.729Z,75
2019-05-19T01:46:03.203Z,75
2019-05-19T01:47:02.579Z,75
2019-05-19T01:48:03.002Z,75
2019-05-19T01:49:02.590Z,75
2019-05-19T01:50:19.018Z,75
2019-05-19T01:51:02.238Z,75
2019-05-19T01:52:02.971Z,75
2019-05-19T01:53:02.921Z,75
2019-05-19T01:54:02.998Z,75
2019-05-19T01:55:02.913Z,75
2019-05-19T01:56:03.199Z,75
2019-05-19T01:57:03.205Z,75
2019-05-19T01:58:02.530Z,75
2019-05-19T01:59:02.934Z,76
2019-05-19T02:00:03.723Z,76
2019-05-19T02:01:02.928Z,76
2019-05-19T02:02:03.518Z,76
2019-05-19T02:03:03.304Z,76
2019-05-19T02:04:02.950Z,75
2019-05-19T02:05:03.469Z,75
2019-05-19T02:06:02.655Z,75
2019-05-19T02:07:03.113Z,75
2019-05-19T02:08:02.469Z,76
2019-05-19T02:09:02.929Z,76
2019-05-19T02:10:03.320Z,76
2019-05-19T02:11:02.919Z,76
2019-05-19T02:12:03.021Z,76
2019-05-19T02:13:05.513Z,76
2019-05-19T02:14:03.177Z,76
2019-05-19T02:15:02.889Z,76
2019-05-19T02:16:03.021Z,76
2019-05-19T02:17:02.640Z,76
2019-05-19T02:18:02.672Z,76
2019-05-19T02:19:02.994Z,76
2019-05-19T02:20:03.568Z,76
2019-05-19T02:21:02.840Z,76
2019-05-19T02:22:03.508Z,76
2019-05-19T02:23:02.818Z,76
2019-05-19T02:24:03.213Z,76
2019-05-19T02:25:02.893Z,76
2019-05-19T02:26:03.024Z,76
2019-05-19T02:27:02.366Z,76
2019-05-19T02:28:02.973Z,77
2019-05-19T02:29:03.291Z,77
2019-05-19T02:30:03.271Z,77
2019-05-19T02:31:03.185Z,77
2019-05-19T02:32:02.583Z,77
2019-05-19T02:33:03.167Z,77
2019-05-19T02:34:02.648Z,77
2019-05-19T02:35:03.147Z,77
2019-05-19T02:36:02.526Z,77
2019-05-19T02:37:02.507Z,77
2019-05-19T02:38:03.566Z,77
2019-05-19T02:39:02.649Z,77
2019-05-19T02:40:03.333Z,78
2019-05-19T02:41:02.653Z,78
2019-05-19T02:42:03.273Z,78
2019-05-19T02:43:02.512Z,78
2019-05-19T02:44:03.681Z,78
2019-05-19T02:45:03.330Z,78
2019-05-19T02:46:03.207Z,78
2019-05-19T02:47:02.605Z,78
2019-05-19T02:48:03.179Z,78
2019-05-19T02:49:03.480Z,78
2019-05-19T02:50:02.776Z,78
2019-05-19T02:51:03.324Z,78
2019-05-19T02:52:02.626Z,78
2019-05-19T02:53:03.582Z,78
2019-05-19T02:54:02.652Z,78
2019-05-19T02:55:03.460Z,78
2019-05-19T02:56:03.125Z,78
2019-05-19T02:57:03.469Z,78
2019-05-19T02:58:03.248Z,78
2019-05-19T02:59:02.715Z,78
2019-05-19T03:00:03.681Z,78
2019-05-19T03:01:02.655Z,78
2019-05-19T03:02:03.024Z,78
2019-05-19T03:03:02.937Z,78
2019-05-19T03:04:03.117Z,78
2019-05-19T03:05:03.256Z,78
2019-05-19T03:06:03.507Z,78
2019-05-19T03:07:03.037Z,78
2019-05-19T03:08:03.168Z,78
2019-05-19T03:09:03.209Z,78
2019-05-19T03:10:03.495Z,78
2019-05-19T03:11:02.538Z,78
2019-05-19T03:12:02.568Z,79
2019-05-19T03:13:03.428Z,79
2019-05-19T03:14:02.801Z,79
2019-05-19T03:15:03.023Z,79
2019-05-19T03:16:02.592Z,79
2019-05-19T03:17:02.575Z,79
2019-05-19T03:18:03.279Z,79
2019-05-19T03:19:02.807Z,79
2019-05-19T03:20:02.659Z,79
2019-05-19T03:21:12.413Z,79
2019-05-19T03:22:03.246Z,79
2019-05-19T03:23:03.339Z,79
2019-05-19T03:24:02.588Z,79
2019-05-19T03:25:02.846Z,79
2019-05-19T03:26:02.988Z,79
2019-05-19T03:27:02.454Z,79
2019-05-19T03:28:02.743Z,78
2019-05-19T03:29:02.813Z,78
2019-05-19T03:30:02.994Z,78
2019-05-19T03:31:02.613Z,79
2019-05-19T03:32:03.160Z,79
2019-05-19T03:33:02.703Z,79
2019-05-19T03:34:02.960Z,79
2019-05-19T03:35:03.404Z,79
2019-05-19T03:36:02.997Z,78
2019-05-19T03:37:02.591Z,78
2019-05-19T03:38:02.712Z,78
2019-05-19T03:39:03.479Z,79
2019-05-19T03:40:02.707Z,79
2019-05-19T03:41:03.006Z,79
2019-05-19T03:42:02.535Z,79
2019-05-19T03:43:02.824Z,79
2019-05-19T03:44:02.586Z,79
2019-05-19T03:45:03.016Z,79
2019-05-19T03:46:03.340Z,78
2019-05-19T03:47:02.938Z,79
2019-05-19T03:48:03.030Z,79
2019-05-19T03:49:02.831Z,79
2019-05-19T03:50:02.838Z,79
2019-05-19T03:51:03.406Z,79
2019-05-19T03:52:03.394Z,79
2019-05-19T03:53:02.938Z,79
2019-05-19T03:54:02.562Z,79
2019-05-19T03:55:03.019Z,79
2019-05-19T03:56:03.393Z,79
2019-05-19T03:57:03.047Z,79
2019-05-19T03:58:03.365Z,79
2019-05-19T03:59:02.877Z,79
2019-05-19T04:00:03.274Z,79
2019-05-19T04:01:02.792Z,79
2019-05-19T04:02:03.272Z,79
2019-05-19T04:03:03.408Z,79
2019-05-19T04:04:03.054Z,79
2019-05-19T04:05:03.148Z,79
2019-05-19T04:06:02.630Z,79
2019-05-19T04:07:03.277Z,79
2019-05-19T04:08:02.703Z,79
2019-05-19T04:09:03.426Z,79
2019-05-19T04:10:02.975Z,79
2019-05-19T04:11:03.289Z,79
2019-05-19T04:12:03.340Z,79
2019-05-19T04:13:02.745Z,79
2019-05-19T04:14:02.759Z,79
2019-05-19T04:15:02.952Z,79
2019-05-19T04:16:03.363Z,79
2019-05-19T04:17:02.703Z,79
2019-05-19T04:18:03.250Z,79
2019-05-19T04:19:02.749Z,79
2019-05-19T04:20:02.699Z,79
2019-05-19T04:21:02.942Z,79
2019-05-19T04:22:03.332Z,79
2019-05-19T04:23:02.653Z,79
2019-05-19T04:24:02.920Z,79
2019-05-19T04:25:03.231Z,79
2019-05-19T04:26:02.935Z,79
2019-05-19T04:27:02.969Z,79
2019-05-19T04:28:03.071Z,79
2019-05-19T04:29:03.425Z,79
2019-05-19T04:30:03.111Z,79
2019-05-19T04:31:02.489Z,79
2019-05-19T04:32:03.127Z,79
2019-05-19T04:33:03.389Z,79
2019-05-19T04:34:03.059Z,79
2019-05-19T04:35:03.136Z,79
2019-05-19T04:36:02.441Z,79
2019-05-19T04:37:02.598Z,79
2019-05-19T04:38:03.166Z,80
2019-05-19T04:39:02.793Z,79
2019-05-19T04:40:03.277Z,79
2019-05-19T04:41:03.109Z,79
2019-05-19T04:42:03.136Z,79
2019-05-19T04:43:03.187Z,79
2019-05-19T04:44:02.696Z,79
2019-05-19T04:45:02.471Z,79
2019-05-19T04:46:03.120Z,79
2019-05-19T04:47:02.662Z,79
2019-05-19T04:48:02.987Z,79
2019-05-19T04:49:03.466Z,79
2019-05-19T04:50:03.016Z,79
2019-05-19T04:51:03.081Z,79
2019-05-19T04:52:07.914Z,79
2019-05-19T04:53:02.968Z,79
2019-05-19T04:54:02.849Z,79
2019-05-19T04:55:03.172Z,79
2019-05-19T04:56:03.333Z,79
2019-05-19T04:57:01.631Z,79
2019-05-19T04:58:03.217Z,79
2019-05-19T04:59:02.516Z,79
2019-05-19T05:00:03.485Z,80
2019-05-19T05:01:02.781Z,80
2019-05-19T05:02:02.880Z,80
2019-05-19T05:03:03.463Z,80
2019-05-19T05:04:03.113Z,80
2019-05-19T05:05:02.755Z,80
2019-05-19T05:06:02.971Z,79
2019-05-19T05:07:03.304Z,79
2019-05-19T05:08:03.216Z,79
2019-05-19T05:09:03.227Z,79
2019-05-19T05:10:02.784Z,79
2019-05-19T05:11:03.039Z,79
2019-05-19T05:12:02.398Z,79
2019-05-19T05:13:02.909Z,79
2019-05-19T05:14:03.338Z,80
2019-05-19T05:15:02.835Z,80
2019-05-19T05:16:03.407Z,80
2019-05-19T05:17:02.633Z,80
2019-05-19T05:18:02.628Z,80
2019-05-19T05:19:03.011Z,80
2019-05-19T05:20:03.200Z,80
2019-05-19T05:21:02.683Z,80
2019-05-19T05:22:03.326Z,80
2019-05-19T05:23:02.727Z,80
2019-05-19T05:24:03.052Z,80
2019-05-19T05:25:02.603Z,80
2019-05-19T05:26:03.225Z,80
2019-05-19T05:27:02.651Z,80
2019-05-19T05:28:03.034Z,79
2019-05-19T05:29:02.480Z,79
2019-05-19T05:30:03.126Z,79
2019-05-19T05:31:02.492Z,79
2019-05-19T05:32:02.869Z,79
2019-05-19T05:33:03.518Z,79
2019-05-19T05:34:03.021Z,79
2019-05-19T05:35:03.380Z,79
2019-05-19T05:36:02.677Z,78
2019-05-19T05:37:03.252Z,78
2019-05-19T05:38:02.994Z,78
2019-05-19T05:39:03.182Z,78
2019-05-19T05:40:02.857Z,78
2019-05-19T05:41:03.023Z,78
2019-05-19T05:42:02.358Z,78
2019-05-19T05:43:03.156Z,78
2019-05-19T05:44:02.532Z,78
2019-05-19T05:45:02.959Z,78
2019-05-19T05:46:02.900Z,78
2019-05-19T05:47:03.100Z,78
2019-05-19T05:48:02.920Z,78
2019-05-19T05:49:03.219Z,78
2019-05-19T05:50:03.302Z,78
2019-05-19T05:51:02.930Z,78
2019-05-19T05:52:03.211Z,78
2019-05-19T05:53:02.790Z,78
2019-05-19T05:54:02.627Z,78
2019-05-19T05:55:02.813Z,78
2019-05-19T05:56:03.386Z,78
2019-05-19T05:57:02.513Z,78
2019-05-19T05:58:03.226Z,78
2019-05-19T05:59:02.958Z,77
2019-05-19T06:00:02.736Z,77
2019-05-19T06:01:03.339Z,76
2019-05-19T06:02:02.795Z,76
2019-05-19T06:03:02.889Z,76
2019-05-19T06:04:02.671Z,76
2019-05-19T06:05:02.960Z,75
2019-05-19T06:06:03.093Z,75
2019-05-19T06:07:02.809Z,75
2019-05-19T06:08:02.660Z,75
2019-05-19T06:09:03.010Z,75
2019-05-19T06:10:03.039Z,75
2019-05-19T06:11:03.237Z,74
2019-05-19T06:12:02.669Z,74
2019-05-19T06:13:03.276Z,74
2019-05-19T06:14:02.390Z,74
2019-05-19T06:15:02.965Z,74
2019-05-19T06:16:03.169Z,73
2019-05-19T06:17:03.002Z,73
2019-05-19T06:18:03.396Z,74
2019-05-19T06:19:02.746Z,74
2019-05-19T06:20:05.043Z,73
2019-05-19T06:21:02.885Z,73
2019-05-19T06:22:02.888Z,73
2019-05-19T06:23:02.523Z,73
2019-05-19T06:24:02.901Z,73
2019-05-19T06:25:03.597Z,73
2019-05-19T06:26:02.651Z,73
2019-05-19T06:27:03.423Z,73
2019-05-19T06:28:02.496Z,73
2019-05-19T06:29:03.237Z,73
2019-05-19T06:30:02.741Z,73
2019-05-19T06:31:02.968Z,72
2019-05-19T06:32:02.902Z,72
2019-05-19T06:33:03.086Z,72
2019-05-19T06:34:02.841Z,72
2019-05-19T06:35:03.344Z,72
2019-05-19T06:36:02.896Z,72
2019-05-19T06:37:02.995Z,71
2019-05-19T06:38:03.680Z,71
2019-05-19T06:39:03.388Z,71
2019-05-19T06:40:02.904Z,71
2019-05-19T06:41:02.531Z,71
2019-05-19T06:42:03.149Z,71
2019-05-19T06:43:02.990Z,70
2019-05-19T06:44:03.695Z,70
2019-05-19T06:45:02.851Z,70
2019-05-19T06:46:03.234Z,70
2019-05-19T06:47:02.703Z,70
2019-05-19T06:48:03.301Z,70
2019-05-19T06:49:03.344Z,70
2019-05-19T06:50:03.041Z,70
2019-05-19T06:51:03.261Z,69
2019-05-19T06:52:02.922Z,69
2019-05-19T06:53:15.100Z,69
2019-05-19T06:54:02.817Z,69
2019-05-19T06:55:03.455Z,69
2019-05-19T06:56:02.705Z,69
2019-05-19T06:57:03.377Z,69
2019-05-19T06:58:02.940Z,69
2019-05-19T06:59:03.219Z,69
2019-05-19T07:00:03.083Z,69
2019-05-19T07:01:03.409Z,69
2019-05-19T07:02:02.836Z,69
2019-05-19T07:03:03.240Z,69
2019-05-19T07:04:02.921Z,68
2019-05-19T07:05:03.254Z,68
2019-05-19T07:06:02.529Z,68
2019-05-19T07:07:03.249Z,68
2019-05-19T07:08:03.231Z,68
2019-05-19T07:09:02.528Z,68
2019-05-19T07:10:03.042Z,68
2019-05-19T07:11:03.367Z,68
2019-05-19T07:12:02.832Z,67
2019-05-19T07:13:02.684Z,67
2019-05-19T07:14:03.316Z,67
2019-05-19T07:15:02.869Z,67
2019-05-19T07:16:03.193Z,66
2019-05-19T07:17:02.875Z,66
2019-05-19T07:18:03.088Z,66
2019-05-19T07:19:02.631Z,66
2019-05-19T07:20:03.154Z,66
2019-05-19T07:21:03.348Z,66
2019-05-19T07:22:02.813Z,66
2019-05-19T07:23:03.191Z,66
2019-05-19T07:24:02.572Z,66
2019-05-19T07:25:02.958Z,66
2019-05-19T07:26:03.117Z,66
2019-05-19T07:27:02.994Z,66
2019-05-19T07:28:03.223Z,65
2019-05-19T07:29:02.679Z,65
2019-05-19T07:30:03.120Z,65
2019-05-19T07:31:03.146Z,65
2019-05-19T07:32:02.897Z,65
2019-05-19T07:33:03.100Z,65
2019-05-19T07:34:03.039Z,65
2019-05-19T07:35:03.291Z,65
2019-05-19T07:36:02.677Z,65
2019-05-19T07:37:02.894Z,65
2019-05-19T07:38:02.540Z,65
2019-05-19T07:39:02.732Z,65
2019-05-19T07:40:03.276Z,64
2019-05-19T07:41:02.793Z,65
2019-05-19T07:42:03.422Z,65
2019-05-19T07:43:02.743Z,65
2019-05-19T07:44:03.202Z,64
2019-05-19T07:45:02.744Z,64
2019-05-19T07:46:03.356Z,64
2019-05-19T07:47:02.509Z,64
2019-05-19T07:48:02.610Z,64
2019-05-19T07:49:03.118Z,63
2019-05-19T07:50:02.742Z,63
2019-05-19T07:51:03.096Z,63
2019-05-19T07:52:02.687Z,63
2019-05-19T07:53:03.392Z,63
2019-05-19T07:54:03.003Z,63
2019-05-19T07:55:02.971Z,63
2019-05-19T07:56:03.124Z,62
2019-05-19T07:57:02.808Z,62
2019-05-19T07:58:02.776Z,62
2019-05-19T07:59:03.030Z,62
2019-05-19T08:00:03.082Z,62
2019-05-19T08:01:03.395Z,61
2019-05-19T08:02:02.811Z,61
2019-05-19T08:03:03.364Z,61
2019-05-19T08:04:02.999Z,61
2019-05-19T08:05:03.313Z,61
2019-05-19T08:06:03.294Z,61
2019-05-19T08:07:03.380Z,61
2019-05-19T08:08:02.733Z,61
2019-05-19T08:09:03.377Z,61
2019-05-19T08:10:02.887Z,60
2019-05-19T08:11:03.282Z,60
2019-05-19T08:12:02.915Z,60
2019-05-19T08:13:03.670Z,60
2019-05-19T08:14:02.824Z,60
2019-05-19T08:15:03.392Z,60
2019-05-19T08:16:02.303Z,60
2019-05-19T08:17:03.020Z,60
2019-05-19T08:18:03.255Z,60
2019-05-19T08:19:02.779Z,60
2019-05-19T08:20:03.452Z,60
2019-05-19T08:21:02.568Z,60
2019-05-19T08:22:02.784Z,60
2019-05-19T08:23:03.330Z,59
2019-05-19T08:24:03.368Z,59
2019-05-19T08:25:03.032Z,59
2019-05-19T08:26:03.105Z,59
2019-05-19T08:27:02.675Z,59
2019-05-19T08:28:09.533Z,58
2019-05-19T08:29:02.303Z,58
2019-05-19T08:30:02.982Z,58
2019-05-19T08:31:02.919Z,58
2019-05-19T08:32:03.160Z,58
2019-05-19T08:33:02.552Z,58
2019-05-19T08:34:02.937Z,58
2019-05-19T08:35:04.643Z,58
2019-05-19T08:36:03.417Z,58
2019-05-19T08:37:02.693Z,58
2019-05-19T08:38:02.451Z,58
2019-05-19T08:39:03.167Z,57
2019-05-19T08:40:02.800Z,57
2019-05-19T08:41:03.446Z,57
2019-05-19T08:42:02.544Z,56
2019-05-19T08:43:03.289Z,56
2019-05-19T08:44:02.688Z,56
2019-05-19T08:45:03.218Z,55
2019-05-19T08:46:02.938Z,56
2019-05-19T08:47:03.091Z,56
2019-05-19T08:48:02.754Z,55
2019-05-19T08:49:03.316Z,55
2019-05-19T08:50:02.580Z,55
2019-05-19T08:51:03.278Z,55
2019-05-19T08:52:02.780Z,55
2019-05-19T08:53:03.298Z,55
2019-05-19T08:54:19.151Z,55
2019-05-19T08:55:03.398Z,55
2019-05-19T08:56:03.050Z,54
2019-05-19T08:57:03.307Z,54
2019-05-19T08:58:02.921Z,54
2019-05-19T08:59:03.026Z,53
2019-05-19T09:00:02.977Z,53
2019-05-19T09:01:02.137Z,53
2019-05-19T09:02:03.030Z,53
2019-05-19T09:03:03.419Z,53
2019-05-19T09:04:02.719Z,53
2019-05-19T09:05:03.352Z,53
2019-05-19T09:06:02.831Z,53
2019-05-19T09:07:02.455Z,53
2019-05-19T09:08:02.984Z,53
2019-05-19T09:09:02.509Z,53
2019-05-19T09:10:03.236Z,53
2019-05-19T09:11:02.696Z,53
2019-05-19T09:12:02.976Z,53
2019-05-19T09:13:03.127Z,52
2019-05-19T09:14:02.756Z,52
2019-05-19T09:15:03.198Z,52
2019-05-19T09:16:03.028Z,52
2019-05-19T09:17:03.724Z,52
2019-05-19T09:18:02.941Z,52
2019-05-19T09:19:03.350Z,52
2019-05-19T09:20:03.355Z,52
2019-05-19T09:21:03.359Z,52
2019-05-19T09:22:03.284Z,51
2019-05-19T09:23:02.621Z,52
2019-05-19T09:24:03.036Z,52
2019-05-19T09:25:02.697Z,52
2019-05-19T09:26:02.971Z,52
2019-05-19T09:27:02.598Z,52
2019-05-19T09:28:03.050Z,52
2019-05-19T09:29:02.899Z,52
2019-05-19T09:30:02.743Z,52
2019-05-19T09:31:03.438Z,52
2019-05-19T09:32:02.914Z,52
2019-05-19T09:33:03.549Z,52
2019-05-19T09:34:02.779Z,51
2019-05-19T09:35:02.981Z,51
2019-05-19T09:36:02.380Z,51
2019-05-19T09:37:03.185Z,51
2019-05-19T09:38:02.415Z,51
2019-05-19T09:39:03.397Z,50
2019-05-19T09:40:02.948Z,50
2019-05-19T09:41:03.211Z,50
2019-05-19T09:42:03.287Z,50
2019-05-19T09:43:03.461Z,50
2019-05-19T09:44:03.418Z,50
2019-05-19T09:45:03.007Z,49
2019-05-19T09:46:02.488Z,49
2019-05-19T09:47:02.942Z,49
2019-05-19T09:48:03.093Z,49
2019-05-19T09:49:03.514Z,49
2019-05-19T09:50:03.219Z,49
2019-05-19T09:51:02.744Z,48
2019-05-19T09:52:03.165Z,48
2019-05-19T09:53:02.797Z,48
2019-05-19T09:54:03.020Z,48
2019-05-19T09:55:02.934Z,48
2019-05-19T09:56:03.185Z,48
2019-05-19T09:57:03.134Z,48
2019-05-19T09:58:02.619Z,48
2019-05-19T09:59:03.108Z,48
2019-05-19T10:00:02.759Z,48
2019-05-19T10:01:03.258Z,47
2019-05-19T10:02:02.867Z,47
2019-05-19T10:03:03.947Z,47
2019-05-19T10:04:03.421Z,47
2019-05-19T10:05:02.628Z,47
2019-05-19T10:06:03.219Z,47
2019-05-19T10:07:06.308Z,46
2019-05-19T10:08:03.343Z,46
2019-05-19T10:09:03.208Z,45
2019-05-19T10:10:02.879Z,45
2019-05-19T10:11:02.839Z,45
2019-05-19T10:12:02.833Z,46
2019-05-19T10:13:01.987Z,45
2019-05-19T10:14:02.757Z,45
2019-05-19T10:15:03.818Z,45
2019-05-19T10:16:03.098Z,45
2019-05-19T10:17:02.893Z,45
2019-05-19T10:18:02.438Z,45
2019-05-19T10:19:02.563Z,45
2019-05-19T10:20:03.208Z,44
2019-05-19T10:21:03.449Z,44
2019-05-19T10:22:03.192Z,44
2019-05-19T10:23:02.679Z,44
2019-05-19T10:24:02.744Z,44
2019-05-19T10:25:23.683Z,44
2019-05-19T10:26:03.369Z,44
2019-05-19T10:27:03.035Z,44
2019-05-19T10:28:02.574Z,43
2019-05-19T10:29:02.661Z,43
2019-05-19T10:30:03.230Z,43
2019-05-19T10:31:02.614Z,43
2019-05-19T10:32:03.114Z,42
2019-05-19T10:33:02.588Z,42
2019-05-19T10:34:02.810Z,42
2019-05-19T10:35:02.716Z,42
2019-05-19T10:36:03.139Z,42
2019-05-19T10:37:02.213Z,42
2019-05-19T10:38:02.679Z,42
2019-05-19T10:39:03.262Z,42
2019-05-19T10:40:03.044Z,42
2019-05-19T10:41:03.368Z,42
2019-05-19T10:42:03.377Z,42
2019-05-19T10:43:03.350Z,42
2019-05-19T10:44:02.627Z,42
2019-05-19T10:45:03.262Z,42
2019-05-19T10:46:02.847Z,42
2019-05-19T10:47:02.696Z,42
2019-05-19T10:48:03.210Z,42
2019-05-19T10:49:02.804Z,42
2019-05-19T10:50:02.504Z,42
2019-05-19T10:51:03.385Z,42
2019-05-19T10:52:02.828Z,42
2019-05-19T10:53:03.316Z,42
2019-05-19T10:54:02.279Z,42
2019-05-19T10:55:03.024Z,42
2019-05-19T10:56:03.293Z,42
2019-05-19T10:57:02.954Z,42
2019-05-19T10:58:03.128Z,41
2019-05-19T10:59:02.974Z,41
2019-05-19T11:00:03.470Z,41
2019-05-19T11:01:02.794Z,41
2019-05-19T11:02:03.300Z,41
2019-05-19T11:03:03.478Z,41
2019-05-19T11:04:03.332Z,41
2019-05-19T11:05:02.701Z,41
2019-05-19T11:06:03.295Z,41
2019-05-19T11:07:02.339Z,41
2019-05-19T11:08:03.289Z,41
2019-05-19T11:09:02.736Z,41
2019-05-19T11:10:03.503Z,41
2019-05-19T11:11:03.093Z,41
2019-05-19T11:12:02.916Z,41
2019-05-19T11:13:02.898Z,41
2019-05-19T11:14:02.844Z,41
2019-05-19T11:15:03.346Z,41
2019-05-19T11:16:02.867Z,41
2019-05-19T11:17:03.083Z,41
2019-05-19T11:18:02.474Z,41
2019-05-19T11:19:03.143Z,41
2019-05-19T11:20:02.912Z,41
2019-05-19T11:21:03.437Z,41
2019-05-19T11:22:02.480Z,40
2019-05-19T11:23:02.985Z,40
2019-05-19T11:24:02.636Z,40
2019-05-19T11:25:03.455Z,40
2019-05-19T11:26:03.466Z,40
2019-05-19T11:27:02.710Z,40
2019-05-19T11:28:03.235Z,40
2019-05-19T11:29:02.869Z,40
2019-05-19T11:30:02.995Z,40
2019-05-19T11:31:03.092Z,40
2019-05-19T11:32:02.780Z,40
2019-05-19T11:33:02.574Z,40
2019-05-19T11:34:02.837Z,40
2019-05-19T11:35:03.602Z,40
2019-05-19T11:36:03.092Z,40
2019-05-19T11:37:03.310Z,40
2019-05-19T11:38:02.636Z,40
2019-05-19T11:39:03.587Z,40
2019-05-19T11:40:03.060Z,40
2019-05-19T11:41:02.690Z,40
2019-05-19T11:42:02.698Z,40
2019-05-19T11:43:03.529Z,40
2019-05-19T11:44:02.979Z,40
2019-05-19T11:45:03.338Z,40
2019-05-19T11:46:02.965Z,40
2019-05-19T11:47:02.705Z,40
2019-05-19T11:48:03.104Z,40
2019-05-19T11:49:02.823Z,40
2019-05-19T11:50:02.435Z,40
2019-05-19T11:51:02.691Z,39
2019-05-19T11:52:03.274Z,39
2019-05-19T11:53:02.527Z,39
2019-05-19T11:54:03.153Z,39
2019-05-19T11:55:03.313Z,39
2019-05-19T11:56:11.797Z,39
2019-05-19T11:57:03.389Z,39
2019-05-19T11:58:02.733Z,39
2019-05-19T11:59:03.279Z,39
2019-05-19T12:00:03.530Z,39
2019-05-19T12:01:02.935Z,39
2019-05-19T12:02:02.594Z,39
2019-05-19T12:03:02.692Z,39
2019-05-19T12:04:03.545Z,39
2019-05-19T12:05:02.714Z,40
2019-05-19T12:06:03.200Z,40
2019-05-19T12:07:02.664Z,39
2019-05-19T12:08:02.854Z,39
2019-05-19T12:09:03.575Z,39
2019-05-19T12:10:03.495Z,39
2019-05-19T12:11:03.231Z,39
2019-05-19T12:12:02.651Z,39
2019-05-19T12:13:03.009Z,39
2019-05-19T12:14:02.797Z,39
2019-05-19T12:15:03.334Z,38
2019-05-19T12:16:02.506Z,38
2019-05-19T12:17:02.532Z,38
2019-05-19T12:18:02.627Z,38
2019-05-19T12:19:03.061Z,38
2019-05-19T12:20:03.348Z,38
2019-05-19T12:21:02.983Z,38
2019-05-19T12:22:03.219Z,38
2019-05-19T12:23:03.148Z,38
2019-05-19T12:24:03.400Z,38
2019-05-19T12:25:02.939Z,38
2019-05-19T12:26:03.206Z,38
2019-05-19T12:27:03.358Z,38
2019-05-19T12:28:02.974Z,38
2019-05-19T12:29:02.514Z,38
2019-05-19T12:30:02.341Z,39
2019-05-19T12:31:02.541Z,39
2019-05-19T12:32:03.057Z,39
2019-05-19T12:33:03.572Z,39
2019-05-19T12:34:02.807Z,38
2019-05-19T12:35:02.597Z,39
2019-05-19T12:36:02.803Z,39
2019-05-19T12:37:03.356Z,38
2019-05-19T12:38:02.662Z,38
2019-05-19T12:39:02.630Z,38
2019-05-19T12:40:02.853Z,39
2019-05-19T12:41:03.040Z,38
2019-05-19T12:42:02.493Z,38
2019-05-19T12:43:03.063Z,38
2019-05-19T12:44:02.779Z,38
2019-05-19T12:45:03.403Z,39
2019-05-19T12:46:02.894Z,39
2019-05-19T12:47:02.668Z,39
2019-05-19T12:48:02.383Z,39
2019-05-19T12:49:02.911Z,39
2019-05-19T12:50:03.266Z,39
2019-05-19T12:51:03.044Z,39
2019-05-19T12:52:02.534Z,39
2019-05-19T12:53:02.841Z,39
2019-05-19T12:54:03.569Z,39
2019-05-19T12:55:02.692Z,40
2019-05-19T12:56:02.685Z,39
2019-05-19T12:57:03.130Z,39
2019-05-19T12:58:02.786Z,39
2019-05-19T12:59:02.924Z,39
2019-05-19T13:00:02.612Z,39
2019-05-19T13:01:03.118Z,39
2019-05-19T13:02:02.444Z,39
2019-05-19T13:03:03.568Z,39
2019-05-19T13:04:03.139Z,39
2019-05-19T13:05:06.635Z,39
2019-05-19T13:06:03.318Z,39
2019-05-19T13:07:02.861Z,39
2019-05-19T13:08:03.680Z,39
2019-05-19T13:09:02.724Z,39
2019-05-19T13:10:02.993Z,39
2019-05-19T13:11:02.567Z,39
2019-05-19T13:12:02.649Z,39
2019-05-19T13:13:03.346Z,39
2019-05-19T13:14:02.868Z,39
2019-05-19T13:15:03.528Z,39
2019-05-19T13:16:02.527Z,39
2019-05-19T13:17:03.257Z,39
2019-05-19T13:18:02.547Z,39
2019-05-19T13:19:03.203Z,38
2019-05-19T13:20:02.822Z,38
2019-05-19T13:21:03.127Z,38
2019-05-19T13:22:02.562Z,38
2019-05-19T13:23:03.491Z,39
2019-05-19T13:24:02.530Z,39
2019-05-19T13:25:03.012Z,39
2019-05-19T13:26:03.299Z,38
2019-05-19T13:27:02.808Z,38
2019-05-19T13:28:03.049Z,38
2019-05-19T13:29:02.376Z,38
2019-05-19T13:30:02.941Z,38
2019-05-19T13:31:03.455Z,38
2019-05-19T13:32:02.743Z,38
2019-05-19T13:33:03.028Z,38
2019-05-19T13:34:03.063Z,38
2019-05-19T13:35:03.581Z,38
2019-05-19T13:36:03.050Z,38
2019-05-19T13:37:02.715Z,38
2019-05-19T13:38:02.409Z,38
2019-05-19T13:39:03.272Z,38
2019-05-19T13:40:03.462Z,38
2019-05-19T13:41:02.862Z,38
2019-05-19T13:42:03.395Z,38
2019-05-19T13:43:02.641Z,38
2019-05-19T13:44:02.988Z,38
2019-05-19T13:45:03.559Z,38
2019-05-19T13:46:03.265Z,38
2019-05-19T13:47:02.391Z,38
2019-05-19T13:48:03.420Z,38
2019-05-19T13:49:03.406Z,38
2019-05-19T13:50:03.250Z,38
2019-05-19T13:51:03.322Z,38
2019-05-19T13:52:02.685Z,38
2019-05-19T13:53:03.041Z,37
2019-05-19T13:54:02.644Z,37
2019-05-19T13:55:02.937Z,37
2019-05-19T13:56:03.167Z,37
2019-05-19T13:57:13.076Z,37
2019-05-19T13:58:03.856Z,37
2019-05-19T13:59:01.581Z,37
2019-05-19T14:00:03.382Z,37
2019-05-19T14:01:02.681Z,38
2019-05-19T14:02:03.240Z,38
2019-05-19T14:03:03.264Z,38
2019-05-19T14:04:02.718Z,38
2019-05-19T14:05:02.551Z,38
2019-05-19T14:06:03.053Z,38
2019-05-19T14:07:03.289Z,38
2019-05-19T14:08:03.186Z,37
2019-05-19T14:09:03.502Z,38
2019-05-19T14:10:02.839Z,38
2019-05-19T14:11:03.427Z,38
2019-05-19T14:12:02.507Z,38
2019-05-19T14:13:03.268Z,38
2019-05-19T14:14:02.903Z,37
2019-05-19T14:15:04.539Z,37
2019-05-19T14:16:02.845Z,37
2019-05-19T14:17:03.310Z,37